Time;durP1;ratioP1;P1;durP2;ratioP2;P2;SDS_P1;SDS_P2;PMS_P1;PMS_P2;Temp;Humidity;BMP_temperature;BMP_pressure;BME280_temperature;BME280_humidity;BME280_pressure;Samples;Min_cycle;Max_cycle;Signal;HPM_P1;HPM_P2
2022/05/21 00:02:46;;;;;;;2.80;1.30;;;17.70;56.80;19.80;94422.00;;;;10272616;28;45151;-59
2022/05/21 00:08:09;;;;;;;1.90;1.25;;;17.70;57.30;19.80;94413.00;;;;10272244;28;45290;-60
2022/05/21 00:13:31;;;;;;;2.33;1.27;;;17.70;57.30;19.80;94426.00;;;;10273226;28;45065;-59
2022/05/21 00:18:51;;;;;;;2.63;1.50;;;17.70;57.00;19.80;94414.00;;;;10272183;28;45209;-60
2022/05/21 00:24:12;;;;;;;2.00;1.45;;;17.70;56.90;19.80;94421.00;;;;10272209;28;45877;-61
2022/05/21 00:29:34;;;;;;;2.45;1.20;;;17.70;57.40;19.70;94417.00;;;;10327596;23;45758;-59
2022/05/21 00:34:54;;;;;;;3.40;1.42;;;17.70;57.00;19.80;94434.00;;;;10353102;28;45832;-60
2022/05/21 00:40:15;;;;;;;2.58;1.40;;;17.70;57.00;19.70;94412.00;;;;10352579;28;45578;-60
2022/05/21 00:45:37;;;;;;;3.58;1.48;;;17.70;57.20;19.70;94410.00;;;;10351980;28;45133;-61
2022/05/21 00:50:59;;;;;;;1.92;1.20;;;17.70;56.90;19.80;94432.00;;;;10319007;28;45227;-60
2022/05/21 00:56:21;;;;;;;1.80;1.30;;;17.70;57.40;19.70;94419.00;;;;10355237;28;45444;-59
2022/05/21 01:01:47;;;;;;;2.38;1.35;;;17.70;57.50;19.80;94423.00;;;;10353631;28;45673;-60
2022/05/21 01:07:08;;;;;;;2.55;1.40;;;17.70;57.30;19.70;94434.00;;;;10357097;28;45101;-60
2022/05/21 01:12:33;;;;;;;2.92;1.30;;;17.70;57.20;19.70;94443.00;;;;10359249;28;45298;-61
2022/05/21 01:17:55;;;;;;;2.58;1.35;;;17.70;57.90;19.70;94444.00;;;;10358872;28;45161;-60
2022/05/21 01:23:19;;;;;;;1.95;1.23;;;17.70;57.50;19.70;94442.00;;;;10359286;28;45681;-61
2022/05/21 01:28:40;;;;;;;1.85;1.35;;;17.70;57.10;19.70;94450.00;;;;10358221;28;45214;-60
2022/05/21 01:34:00;;;;;;;2.88;1.30;;;17.70;57.90;19.70;94459.00;;;;10358845;28;45224;-60
2022/05/21 01:39:22;;;;;;;1.67;1.27;;;17.70;57.70;19.70;94450.00;;;;10357956;28;45276;-61
2022/05/21 01:44:46;;;;;;;2.53;1.30;;;17.70;57.60;19.70;94441.00;;;;10357970;28;46114;-60
2022/05/21 01:50:08;;;;;;;2.88;1.10;;;17.70;57.50;19.70;94452.00;;;;10357758;28;45135;-59
2022/05/21 01:55:30;;;;;;;2.33;1.20;;;17.60;58.10;19.70;94455.00;;;;10357520;28;45264;-60
2022/05/21 02:00:51;;;;;;;3.17;1.35;;;17.60;57.80;19.70;94450.00;;;;10357946;28;45950;-59
2022/05/21 02:06:12;;;;;;;1.73;1.13;;;17.70;58.00;19.70;94444.00;;;;10357090;28;45201;-60
2022/05/21 02:11:34;;;;;;;1.75;1.23;;;17.70;57.90;19.70;94458.00;;;;10357501;28;45182;-59
2022/05/21 02:16:54;;;;;;;3.25;1.40;;;17.60;58.00;19.70;94455.00;;;;10357079;28;45197;-60
2022/05/21 02:22:15;;;;;;;2.38;1.30;;;17.70;58.50;19.70;94474.00;;;;10356863;28;45180;-59
2022/05/21 02:27:37;;;;;;;2.63;1.35;;;17.60;57.90;19.70;94469.00;;;;10356139;28;45169;-60
2022/05/21 02:32:58;;;;;;;2.13;1.40;;;17.60;58.30;19.70;94467.00;;;;10356997;28;45166;-59
2022/05/21 02:43:58;;;;;;;2.45;1.38;;;17.60;57.70;19.70;94484.00;;;;10356927;28;45378;-62
2022/05/21 02:49:19;;;;;;;1.23;1.00;;;17.60;58.50;19.70;94492.00;;;;10355897;28;45256;-61
2022/05/21 02:54:39;;;;;;;1.92;1.10;;;17.60;58.00;19.70;94471.00;;;;10356435;28;45092;-59
2022/05/21 03:00:04;;;;;;;1.92;1.40;;;17.60;58.30;19.70;94468.00;;;;10355618;28;45244;-61
2022/05/21 03:05:25;;;;;;;1.80;1.40;;;17.60;58.10;19.70;94449.00;;;;10355404;28;45866;-60
2022/05/21 03:10:46;;;;;;;2.05;1.23;;;17.60;58.00;19.70;94480.00;;;;10355629;28;45145;-60
2022/05/21 03:16:09;;;;;;;1.30;1.13;;;17.60;58.30;19.70;94450.00;;;;10355252;28;46227;-59
2022/05/21 03:21:30;;;;;;;1.85;1.20;;;17.60;58.20;19.70;94463.00;;;;10354084;28;45409;-60
2022/05/21 03:26:51;;;;;;;1.70;1.20;;;17.60;58.20;19.60;94465.00;;;;10354703;28;45169;-61
2022/05/21 03:32:13;;;;;;;1.38;1.20;;;17.60;58.10;19.70;94468.00;;;;10354527;28;45177;-60
2022/05/21 03:37:34;;;;;;;1.90;1.10;;;17.60;58.10;19.60;94470.00;;;;10354910;28;45179;-59
2022/05/21 03:42:55;;;;;;;1.77;1.17;;;17.60;58.20;19.60;94465.00;;;;10354768;28;45168;-60
2022/05/21 03:48:17;;;;;;;1.48;1.20;;;17.60;58.20;19.60;94466.00;;;;10354205;28;45156;-60
2022/05/21 03:53:37;;;;;;;1.38;1.23;;;17.60;58.00;19.60;94475.00;;;;10353814;28;45149;-60
2022/05/21 03:58:58;;;;;;;2.10;1.40;;;17.60;58.50;19.60;94461.00;;;;10353357;28;45246;-59
2022/05/21 04:04:20;;;;;;;1.65;1.20;;;17.60;58.30;19.60;94454.00;;;;10353959;28;45810;-60
2022/05/21 04:09:40;;;;;;;1.38;1.10;;;17.60;57.90;19.60;94484.00;;;;10353502;28;45100;-59
2022/05/21 04:15:01;;;;;;;1.45;1.10;;;17.60;58.00;19.60;94492.00;;;;10354015;28;45837;-60
2022/05/21 04:20:23;;;;;;;1.85;1.17;;;17.60;58.30;19.60;94487.00;;;;10353350;28;45686;-59
2022/05/21 04:25:43;;;;;;;1.48;1.20;;;17.60;58.20;19.60;94479.00;;;;10352929;28;45772;-61
2022/05/21 04:31:04;;;;;;;1.83;1.05;;;17.60;58.20;19.60;94497.00;;;;10356688;28;45331;-60
2022/05/21 04:36:26;;;;;;;1.30;1.20;;;17.60;58.10;19.60;94494.00;;;;10360595;28;45741;-59
2022/05/21 04:41:47;;;;;;;2.03;1.17;;;17.60;58.40;19.60;94490.00;;;;10360254;28;45202;-61
2022/05/21 04:47:08;;;;;;;1.20;1.10;;;17.50;58.20;19.60;94494.00;;;;10360264;28;45110;-59
2022/05/21 04:52:30;;;;;;;1.50;1.10;;;17.50;58.40;19.60;94487.00;;;;10360088;28;45160;-59
2022/05/21 04:57:51;;;;;;;2.35;1.25;;;17.60;58.60;19.60;94488.00;;;;10359222;28;45257;-61
2022/05/21 05:03:13;;;;;;;1.25;1.00;;;17.60;58.30;19.60;94483.00;;;;10359470;28;46035;-60
2022/05/21 05:08:35;;;;;;;2.97;1.13;;;17.60;58.70;19.60;94489.00;;;;10359363;28;45229;-59
2022/05/21 05:13:56;;;;;;;1.10;1.00;;;17.60;58.60;19.60;94489.00;;;;10359647;28;45775;-59
2022/05/21 05:19:17;;;;;;;2.03;1.02;;;17.50;58.20;19.60;94496.00;;;;10358393;28;45210;-59
2022/05/21 05:24:39;;;;;;;1.20;1.10;;;17.50;58.50;19.60;94499.00;;;;10356951;28;45167;-60
2022/05/21 05:30:00;;;;;;;1.73;1.10;;;17.60;58.50;19.60;94494.00;;;;10357641;28;45816;-61
2022/05/21 05:35:21;;;;;;;1.52;1.10;;;17.60;58.10;19.60;94498.00;;;;10358857;28;45139;-60
2022/05/21 05:40:46;;;;;;;1.65;1.00;;;17.50;58.20;19.60;94483.00;;;;10357565;28;45671;-62
2022/05/21 05:46:07;;;;;;;1.77;1.00;;;17.50;58.30;19.60;94482.00;;;;10358260;28;45198;-60
2022/05/21 05:51:27;;;;;;;1.90;1.02;;;17.60;58.40;19.60;94476.00;;;;10357905;28;45118;-61
2022/05/21 05:56:49;;;;;;;2.20;1.38;;;17.60;58.10;19.60;94495.00;;;;10358050;28;45161;-60
2022/05/21 06:07:52;;;;;;;1.20;1.00;;;17.60;57.90;19.60;94499.00;;;;10355902;28;45441;-60
2022/05/21 06:13:14;;;;;;;2.20;1.08;;;17.50;57.90;19.60;94499.00;;;;10358194;28;45196;-60
2022/05/21 06:18:35;;;;;;;1.52;1.08;;;17.60;57.60;19.70;94509.00;;;;10356375;28;45149;-68
2022/05/21 06:23:55;;;;;;;0.95;0.80;;;17.50;57.40;19.70;94486.00;;;;10357220;28;45716;-61
2022/05/21 06:29:17;;;;;;;1.60;0.90;;;17.60;57.00;19.70;94498.00;;;;10387244;22;45172;-60
2022/05/21 06:34:38;;;;;;;2.00;1.10;;;17.60;57.50;19.70;94517.00;;;;10439024;28;45268;-60
2022/05/21 06:39:59;;;;;;;1.10;1.00;;;17.60;57.40;19.70;94516.00;;;;10436506;28;45851;-60
2022/05/21 06:45:21;;;;;;;2.28;0.82;;;17.60;57.50;19.70;94522.00;;;;10412075;28;45688;-60
2022/05/21 06:50:42;;;;;;;1.35;0.73;;;17.60;57.30;19.70;94506.00;;;;10426206;28;45186;-60
2022/05/21 06:56:07;;;;;;;1.85;0.88;;;17.60;57.20;19.70;94516.00;;;;10395776;28;45180;-60
2022/05/21 07:01:28;;;;;;;2.25;0.90;;;17.60;57.30;19.60;94510.00;;;;10425298;28;45229;-60
2022/05/21 07:12:23;;;;;;;1.33;0.70;;;17.60;56.60;19.60;94524.00;;;;10431883;28;45207;-60
2022/05/21 07:17:46;;;;;;;1.05;0.80;;;17.50;56.30;19.60;94522.00;;;;10414706;28;45779;-60
2022/05/21 07:23:07;;;;;;;1.35;0.70;;;17.60;56.10;19.60;94511.00;;;;10395867;28;45135;-60
2022/05/21 07:28:27;;;;;;;0.75;0.75;;;17.60;55.90;19.60;94517.00;;;;10395076;28;45375;-60
2022/05/21 07:33:49;;;;;;;1.20;0.73;;;17.50;55.90;19.60;94504.00;;;;10395526;28;45242;-60
2022/05/21 07:39:09;;;;;;;1.77;0.90;;;17.50;55.90;19.60;94524.00;;;;10394722;28;45393;-61
2022/05/21 07:44:30;;;;;;;0.98;0.70;;;17.60;55.90;19.50;94522.00;;;;10395501;28;45164;-60
2022/05/21 07:49:56;;;;;;;0.60;0.60;;;17.50;55.80;19.60;94517.00;;;;10394465;28;45244;-60
2022/05/21 07:55:16;;;;;;;0.88;0.75;;;17.60;55.80;19.60;94520.00;;;;10395400;28;45121;-60
2022/05/21 08:00:37;;;;;;;0.70;0.60;;;17.50;55.60;19.60;94522.00;;;;10394689;28;45277;-60
2022/05/21 08:05:59;;;;;;;1.33;0.80;;;17.50;55.60;19.50;94512.00;;;;10393480;28;45702;-60
2022/05/21 08:11:20;;;;;;;1.40;0.63;;;17.50;55.50;19.50;94507.00;;;;10394234;28;45780;-60
2022/05/21 08:16:40;;;;;;;0.70;0.50;;;17.50;55.40;19.50;94500.00;;;;10394078;28;45192;-60
2022/05/21 08:27:37;;;;;;;1.67;0.82;;;17.50;55.60;19.50;94503.00;;;;10361741;28;45285;-60
2022/05/21 08:33:03;;;;;;;1.10;0.70;;;17.50;55.50;19.50;94499.00;;;;10369680;28;45245;-60
2022/05/21 08:38:24;;;;;;;1.00;0.73;;;17.50;55.60;19.50;94501.00;;;;10361890;28;45303;-60
2022/05/21 08:43:57;;;;;;;0.80;0.52;;;17.50;55.50;19.50;94484.00;;;;10351411;28;45232;-60
2022/05/21 08:49:26;;;;;;;1.17;0.80;;;17.50;55.70;19.60;94488.00;;;;10353749;28;45829;-60
2022/05/21 08:54:51;;;;;;;1.17;0.77;;;17.50;55.60;19.60;94488.00;;;;10431572;28;45824;-60
2022/05/21 09:00:17;;;;;;;1.13;0.60;;;17.50;55.40;19.50;94480.00;;;;10432921;28;45415;-60
2022/05/21 09:05:48;;;;;;;0.90;0.68;;;17.50;55.30;19.50;94475.00;;;;10432125;28;45219;-60
2022/05/21 09:11:17;;;;;;;0.60;0.60;;;17.50;55.40;19.50;94477.00;;;;10434089;28;45213;-60
2022/05/21 09:17:00;;;;;;;1.63;0.60;;;17.50;55.10;19.50;94463.00;;;;10432864;28;45375;-60
2022/05/21 09:22:23;;;;;;;0.60;0.60;;;17.50;55.40;19.50;94480.00;;;;10378092;28;45665;-60
2022/05/21 09:27:46;;;;;;;0.85;0.50;;;17.50;55.20;19.60;94489.00;;;;10377440;28;45270;-60
2022/05/21 09:33:25;;;;;;;0.90;0.60;;;17.50;55.10;19.60;94474.00;;;;10374648;28;45313;-60
2022/05/21 09:38:51;;;;;;;1.00;0.75;;;17.50;55.10;19.60;94471.00;;;;10378108;28;45257;-60
2022/05/21 09:50:10;;;;;;;1.40;0.77;;;17.50;55.00;19.60;94463.00;;;;10380445;28;45209;-60
2022/05/21 09:55:31;;;;;;;0.50;0.50;;;17.50;54.80;19.50;94461.00;;;;10372726;28;45468;-60
2022/05/21 10:00:57;;;;;;;0.70;0.63;;;17.50;54.80;19.50;94457.00;;;;10363923;28;45314;-60
2022/05/21 10:06:29;;;;;;;0.68;0.60;;;17.50;55.00;19.50;94447.00;;;;10355735;28;45158;-60
2022/05/21 10:11:57;;;;;;;1.27;0.65;;;17.50;54.90;19.50;94452.00;;;;10357057;28;45920;-60
2022/05/21 10:17:28;;;;;;;0.77;0.60;;;17.50;54.90;19.50;94438.00;;;;10357139;28;45168;-60
2022/05/21 10:22:57;;;;;;;1.00;0.60;;;17.40;54.90;19.50;94432.00;;;;10377034;28;45089;-60
2022/05/21 10:28:33;;;;;;;1.00;0.50;;;17.40;55.00;19.40;94443.00;;;;10375889;28;45193;-60
2022/05/21 10:34:14;;;;;;;0.60;0.60;;;17.40;55.30;19.50;94435.00;;;;10361394;28;45255;-60
2022/05/21 10:39:55;;;;;;;0.50;0.50;;;17.40;55.20;19.40;94422.00;;;;10355861;28;45677;-60
2022/05/21 10:45:25;;;;;;;0.50;0.40;;;17.40;55.20;19.50;94429.00;;;;10356476;28;45896;-60
2022/05/21 10:50:54;;;;;;;0.73;0.70;;;17.40;55.30;19.50;94426.00;;;;10382419;28;45666;-61
2022/05/21 10:56:34;;;;;;;0.68;0.57;;;17.40;55.20;19.50;94423.00;;;;10385631;28;45214;-60
2022/05/21 11:02:08;;;;;;;1.02;0.70;;;17.40;55.30;19.50;94427.00;;;;10381915;28;45275;-60
2022/05/21 11:07:42;;;;;;;0.40;0.40;;;17.40;55.20;19.50;94415.00;;;;10377616;28;45101;-60
2022/05/21 11:13:09;;;;;;;0.50;0.50;;;17.40;55.20;19.50;94411.00;;;;10376005;28;45863;-60
2022/05/21 11:18:38;;;;;;;1.20;0.65;;;17.50;55.20;19.50;94416.00;;;;10356457;28;45434;-60
2022/05/21 11:24:08;;;;;;;0.73;0.50;;;17.40;55.20;19.50;94419.00;;;;10354967;28;45125;-60
2022/05/21 11:29:38;;;;;;;1.25;0.70;;;17.50;55.20;19.50;94417.00;;;;10354421;28;45162;-60
2022/05/21 11:41:27;;;;;;;0.70;0.50;;;17.40;55.10;19.50;94418.00;;;;10353256;28;45271;-60
2022/05/21 11:46:49;;;;;;;0.52;0.47;;;17.50;55.10;19.50;94404.00;;;;10354087;28;45114;-60
2022/05/21 11:52:52;;;;;;;0.70;0.63;;;17.50;55.10;19.50;94391.00;;;;10403564;28;45227;-60
2022/05/21 11:58:15;;;;;;;0.50;0.50;;;17.50;55.10;19.50;94396.00;;;;10435713;28;45147;-60
2022/05/21 12:03:59;;;;;;;0.70;0.50;;;17.50;55.20;19.60;94392.00;;;;10403774;28;45097;-60
2022/05/21 12:09:26;;;;;;;0.40;0.40;;;17.50;55.10;19.50;94363.00;;;;10349964;28;45243;-60
2022/05/21 12:14:51;;;;;;;0.33;0.33;;;17.50;55.10;19.60;94380.00;;;;10353298;28;45880;-60
2022/05/21 12:20:16;;;;;;;0.50;0.40;;;17.50;55.00;19.50;94376.00;;;;10352726;28;45531;-60
2022/05/21 12:25:59;;;;;;;1.02;0.57;;;17.50;54.90;19.60;94384.00;;;;10352935;28;45969;-60
2022/05/21 12:31:27;;;;;;;0.75;0.40;;;17.60;55.30;19.70;94389.00;;;;10361566;23;45938;-61
2022/05/21 12:37:04;;;;;;;1.05;0.80;;;17.60;54.90;19.70;94377.00;;;;10352688;28;45261;-61
2022/05/21 12:42:30;;;;;;;0.63;0.47;;;17.70;55.60;19.70;94384.00;;;;10391342;28;45875;-61
2022/05/21 12:48:05;;;;;;;1.38;0.63;;;17.70;55.20;19.70;94384.00;;;;10393154;28;45112;-61
2022/05/21 12:53:32;;;;;;;2.30;0.60;;;17.60;55.40;19.60;94382.00;;;;10399012;28;45153;-61
2022/05/21 12:59:10;;;;;;;0.63;0.55;;;17.60;55.40;19.70;94362.00;;;;10400130;28;45156;-61
2022/05/21 13:04:36;;;;;;;0.95;0.60;;;17.60;55.30;19.70;94371.00;;;;10400486;28;45886;-61
2022/05/21 13:10:00;;;;;;;1.15;0.73;;;17.70;55.40;19.70;94374.00;;;;10398918;28;45186;-61
2022/05/21 13:15:26;;;;;;;1.67;0.60;;;17.70;55.40;19.70;94371.00;;;;10397901;28;45444;-61
2022/05/21 13:21:00;;;;;;;2.03;0.70;;;17.70;55.50;19.70;94369.00;;;;10399008;28;45661;-61
2022/05/21 13:26:24;;;;;;;0.98;0.60;;;17.70;55.70;19.70;94368.00;;;;10399410;28;45108;-60
2022/05/21 13:31:45;;;;;;;1.58;0.68;;;17.70;55.50;19.70;94364.00;;;;10398992;28;45847;-61
2022/05/21 13:37:07;;;;;;;1.00;0.70;;;17.70;55.70;19.80;94359.00;;;;10398824;28;45228;-61
2022/05/21 13:42:29;;;;;;;2.40;0.60;;;17.70;55.70;19.70;94355.00;;;;10398659;28;45828;-61
2022/05/21 13:47:53;;;;;;;1.85;0.77;;;17.70;55.50;19.70;94345.00;;;;10399079;28;45098;-61
2022/05/21 13:53:23;;;;;;;1.13;0.68;;;17.70;55.50;19.70;94355.00;;;;10397283;28;45220;-61
2022/05/21 13:58:44;;;;;;;2.17;1.00;;;17.70;55.70;19.80;94349.00;;;;10397439;28;45767;-61
2022/05/21 14:04:10;;;;;;;1.30;0.80;;;17.80;56.50;19.80;94350.00;;;;10397190;28;45673;-61
2022/05/21 14:09:36;;;;;;;0.70;0.60;;;17.70;55.80;19.80;94334.00;;;;10395754;28;45156;-61
2022/05/21 14:14:58;;;;;;;0.88;0.77;;;17.80;55.80;19.80;94345.00;;;;10396076;28;45356;-61
2022/05/21 14:20:27;;;;;;;0.60;0.60;;;17.80;55.80;19.80;94320.00;;;;10397286;28;45200;-61
2022/05/21 14:25:50;;;;;;;1.00;0.80;;;17.80;55.80;19.80;94327.00;;;;10397253;28;45771;-61
2022/05/21 14:31:36;;;;;;;1.23;0.80;;;17.80;55.80;19.80;94307.00;;;;10394410;28;45827;-61
2022/05/21 14:36:56;;;;;;;1.85;0.90;;;17.80;55.80;19.80;94310.00;;;;10391869;28;45768;-61
2022/05/21 14:42:18;;;;;;;1.45;0.90;;;17.80;55.70;19.80;94310.00;;;;10395592;28;45192;-61
2022/05/21 14:47:55;;;;;;;1.27;0.90;;;17.90;55.80;19.90;94305.00;;;;10396686;28;45279;-61
2022/05/21 14:53:19;;;;;;;1.25;0.98;;;17.80;55.60;20.10;94297.00;;;;10397122;28;45242;-60
2022/05/21 14:58:41;;;;;;;1.65;0.90;;;18.00;55.40;20.00;94293.00;;;;10396458;28;45109;-58
2022/05/21 15:04:01;;;;;;;2.17;0.82;;;17.90;55.30;19.90;94291.00;;;;10395889;28;45196;-58
2022/05/21 15:09:22;;;;;;;2.75;1.08;;;17.90;55.70;19.90;94281.00;;;;10395375;28;45138;-60
2022/05/21 15:14:45;;;;;;;1.50;1.10;;;17.90;55.40;19.90;94278.00;;;;10394935;28;45295;-60
2022/05/21 15:20:07;;;;;;;2.17;1.98;;;17.90;55.40;19.90;94271.00;;;;10395647;28;45766;-58
2022/05/21 15:25:27;;;;;;;4.00;2.90;;;17.90;55.40;19.90;94261.00;;;;10390815;28;45508;-60
2022/05/21 15:30:51;;;;;;;2.75;2.50;;;17.90;55.50;19.90;94267.00;;;;10368957;28;45780;-59
2022/05/21 15:36:12;;;;;;;3.03;2.53;;;17.90;55.30;19.90;94261.00;;;;10375867;28;45806;-59
2022/05/21 15:41:33;;;;;;;2.53;2.10;;;17.90;55.20;20.00;94263.00;;;;10378024;28;45113;-60
2022/05/21 15:46:56;;;;;;;1.70;1.60;;;17.90;55.10;20.00;94264.00;;;;10364177;28;45221;-59
2022/05/21 15:52:25;;;;;;;1.90;1.60;;;17.90;55.00;20.00;94246.00;;;;10393503;28;45781;-60
2022/05/21 15:57:47;;;;;;;1.90;1.60;;;18.00;54.90;20.00;94239.00;;;;10394779;28;45396;-60
2022/05/21 16:03:09;;;;;;;1.63;1.52;;;18.00;54.80;20.10;94230.00;;;;10394698;28;45105;-59
2022/05/21 16:08:31;;;;;;;1.90;1.50;;;18.00;54.80;20.10;94219.00;;;;10390205;28;45263;-60
2022/05/21 16:13:54;;;;;;;2.67;1.70;;;18.00;54.60;20.10;94215.00;;;;10394321;28;45204;-58
2022/05/21 16:19:16;;;;;;;1.83;1.30;;;18.00;54.70;20.10;94203.00;;;;10394145;28;45691;-61
2022/05/21 16:24:36;;;;;;;1.80;1.40;;;18.00;54.70;20.10;94208.00;;;;10393152;28;45421;-59
2022/05/21 16:29:58;;;;;;;1.95;1.20;;;18.00;54.70;20.10;94202.00;;;;10392494;28;45180;-59
2022/05/21 16:35:21;;;;;;;1.50;1.00;;;18.00;54.60;20.00;94203.00;;;;10375262;28;45666;-58
2022/05/21 16:40:42;;;;;;;1.85;1.20;;;18.00;54.70;20.10;94194.00;;;;10392498;28;45147;-59
2022/05/21 16:46:04;;;;;;;1.17;1.02;;;18.00;54.60;20.10;94206.00;;;;10392509;28;45947;-59
2022/05/21 16:51:26;;;;;;;1.10;1.00;;;18.00;55.30;20.10;94204.00;;;;10392035;28;45310;-60
2022/05/21 16:56:46;;;;;;;1.50;0.90;;;18.00;54.50;20.10;94200.00;;;;10372553;28;45259;-60
2022/05/21 17:02:10;;;;;;;0.63;0.60;;;18.10;54.50;20.10;94187.00;;;;10382019;28;45325;-60
2022/05/21 17:07:31;;;;;;;1.00;0.90;;;18.10;54.50;20.30;94177.00;;;;10385541;28;45169;-59
2022/05/21 17:12:53;;;;;;;2.22;1.10;;;18.20;54.10;20.20;94164.00;;;;10384521;28;45246;-58
2022/05/21 17:18:14;;;;;;;2.42;0.80;;;18.10;54.10;20.10;94155.00;;;;10392393;28;45166;-61
2022/05/21 17:23:36;;;;;;;2.15;0.88;;;18.10;54.10;20.20;94159.00;;;;10392864;28;45437;-59
2022/05/21 17:34:35;;;;;;;1.05;0.95;;;18.10;54.30;20.10;94151.00;;;;10388891;28;45700;-59
2022/05/21 17:39:56;;;;;;;0.68;0.65;;;18.10;54.30;20.10;94141.00;;;;10393052;28;45439;-59
2022/05/21 17:45:20;;;;;;;1.17;0.80;;;18.10;54.30;20.10;94139.00;;;;10399347;28;45367;-59
2022/05/21 17:50:42;;;;;;;2.47;0.90;;;18.10;54.30;20.10;94132.00;;;;10399142;28;45878;-60
2022/05/21 17:56:05;;;;;;;0.73;0.70;;;18.10;54.30;20.10;94144.00;;;;10399334;28;45143;-60
2022/05/21 18:01:26;;;;;;;1.20;0.70;;;18.00;54.30;20.10;94141.00;;;;10398999;28;45847;-59
2022/05/21 18:06:47;;;;;;;0.50;0.50;;;18.00;54.30;20.10;94140.00;;;;10399034;28;45183;-58
2022/05/21 18:12:10;;;;;;;0.90;0.70;;;18.00;54.30;20.00;94138.00;;;;10399023;28;45700;-60
2022/05/21 18:23:17;;;;;;;1.05;0.70;;;17.90;54.30;20.00;94133.00;;;;10379035;28;45373;-59
2022/05/21 18:33:42;;;;;;;0.68;0.65;;;17.90;54.20;20.00;94115.00;;;;10355575;28;45741;-60
2022/05/21 18:39:04;;;;;;;1.05;0.60;;;17.90;54.20;19.90;94125.00;;;;10360436;28;45713;-60
2022/05/21 18:44:25;;;;;;;0.60;0.60;;;17.90;54.30;20.00;94133.00;;;;10397686;28;45144;-59
2022/05/21 18:49:47;;;;;;;2.38;0.77;;;17.90;54.30;19.90;94135.00;;;;10397604;28;45401;-59
2022/05/21 18:55:09;;;;;;;0.63;0.60;;;17.90;54.30;19.90;94137.00;;;;10397721;28;45371;-59
2022/05/21 19:00:30;;;;;;;1.02;0.70;;;17.90;54.40;19.90;94138.00;;;;10397330;28;45159;-59
2022/05/21 19:05:53;;;;;;;1.00;0.70;;;17.80;54.40;19.90;94123.00;;;;10397025;28;45167;-60
2022/05/21 19:11:13;;;;;;;1.10;0.80;;;17.80;54.50;19.90;94138.00;;;;10396726;28;45214;-59
2022/05/21 19:16:35;;;;;;;0.50;0.50;;;17.80;54.40;19.80;94121.00;;;;10396659;28;45761;-59
2022/05/21 19:21:59;;;;;;;0.68;0.60;;;17.80;54.60;19.80;94125.00;;;;10396909;28;45251;-60
2022/05/21 19:27:20;;;;;;;0.60;0.60;;;17.80;54.60;19.80;94132.00;;;;10396359;28;45916;-58
2022/05/21 19:32:41;;;;;;;1.63;0.60;;;17.70;54.50;19.80;94113.00;;;;10395917;28;45177;-60
2022/05/21 19:38:02;;;;;;;1.05;0.65;;;17.70;54.50;19.80;94129.00;;;;10396422;28;45194;-59
2022/05/21 19:43:23;;;;;;;0.68;0.60;;;17.70;54.70;19.80;94132.00;;;;10396147;28;45201;-59
2022/05/21 19:48:44;;;;;;;0.70;0.70;;;17.70;54.70;19.80;94117.00;;;;10395966;28;45182;-59
2022/05/21 19:54:06;;;;;;;0.90;0.70;;;17.70;55.50;19.70;94121.00;;;;10395798;28;45173;-58
2022/05/21 19:59:29;;;;;;;0.95;0.80;;;17.70;54.80;19.70;94140.00;;;;10394367;28;45177;-59
2022/05/21 20:04:50;;;;;;;1.30;0.70;;;17.70;54.80;19.70;94129.00;;;;10395475;28;45114;-59
2022/05/21 20:10:14;;;;;;;0.68;0.68;;;17.60;54.60;19.80;94139.00;;;;10394804;28;45173;-61
2022/05/21 20:15:36;;;;;;;1.02;0.88;;;17.70;54.70;19.70;94136.00;;;;10395408;28;45686;-58
2022/05/21 20:20:57;;;;;;;1.00;0.80;;;17.70;54.70;19.70;94137.00;;;;10394828;28;45198;-59
2022/05/21 20:26:22;;;;;;;1.10;1.00;;;17.60;54.70;19.70;94137.00;;;;10395199;28;45304;-59
2022/05/21 20:31:42;;;;;;;1.40;1.10;;;17.60;54.70;19.70;94137.00;;;;10394746;28;45492;-60
2022/05/21 20:37:03;;;;;;;1.70;1.20;;;17.60;54.60;19.70;94131.00;;;;10395038;28;45666;-60
2022/05/21 20:42:26;;;;;;;1.92;1.13;;;17.60;54.60;19.70;94133.00;;;;10394857;28;45233;-60
2022/05/21 20:53:25;;;;;;;2.38;1.30;;;17.60;54.60;19.70;94140.00;;;;10358963;28;45386;-61
2022/05/21 20:58:47;;;;;;;1.27;1.00;;;17.60;54.60;19.70;94141.00;;;;10351104;28;45202;-58
2022/05/21 21:04:08;;;;;;;2.40;1.20;;;17.70;54.40;19.70;94133.00;;;;10353377;28;45577;-59
2022/05/21 21:09:29;;;;;;;1.33;1.10;;;17.60;54.30;19.70;94123.00;;;;10351669;28;45703;-59
2022/05/21 21:14:51;;;;;;;1.15;1.00;;;17.60;54.30;19.70;94136.00;;;;10359060;28;45117;-60
2022/05/21 21:20:12;;;;;;;1.35;1.17;;;17.60;54.30;19.70;94134.00;;;;10359252;28;45187;-59
2022/05/21 21:25:33;;;;;;;1.15;0.90;;;17.60;54.30;19.70;94132.00;;;;10359398;28;45235;-61
2022/05/21 21:30:55;;;;;;;1.52;0.88;;;17.60;54.30;19.70;94135.00;;;;10358736;28;45679;-61
2022/05/21 21:36:16;;;;;;;1.60;0.90;;;17.60;54.20;19.70;94125.00;;;;10359441;28;45849;-61
2022/05/21 21:41:36;;;;;;;1.20;0.90;;;17.60;54.20;19.70;94129.00;;;;10395606;28;46043;-59
2022/05/21 21:46:58;;;;;;;1.05;0.80;;;17.60;54.20;19.70;94139.00;;;;10399838;28;45173;-60
2022/05/21 21:52:19;;;;;;;1.00;0.85;;;17.60;54.10;19.70;94127.00;;;;10399615;28;45383;-61
2022/05/21 21:57:39;;;;;;;1.00;0.73;;;17.60;54.10;19.70;94135.00;;;;10398407;28;45158;-59
2022/05/21 22:03:01;;;;;;;1.13;0.95;;;17.60;54.00;19.70;94136.00;;;;10398708;28;45110;-60
2022/05/21 22:08:22;;;;;;;1.20;0.70;;;17.60;54.00;19.60;94129.00;;;;10398153;28;45118;-59
2022/05/21 22:13:43;;;;;;;1.20;0.70;;;17.60;54.00;19.60;94130.00;;;;10399153;28;45120;-60
2022/05/21 22:19:04;;;;;;;0.82;0.75;;;17.60;54.10;19.60;94121.00;;;;10397814;28;45708;-60
2022/05/21 22:24:28;;;;;;;1.33;0.98;;;17.60;54.00;19.60;94118.00;;;;10397880;28;45240;-60
2022/05/21 22:29:48;;;;;;;1.20;0.70;;;17.60;54.00;19.60;94128.00;;;;10397827;28;45860;-60
2022/05/21 22:35:11;;;;;;;0.70;0.60;;;17.60;54.70;19.60;94129.00;;;;10397613;28;45781;-59
2022/05/21 22:40:31;;;;;;;0.68;0.60;;;17.60;54.00;19.60;94120.00;;;;10369341;28;45767;-60
2022/05/21 22:45:52;;;;;;;0.90;0.70;;;17.60;54.00;19.60;94118.00;;;;10356561;28;45710;-59
2022/05/21 22:51:18;;;;;;;0.65;0.60;;;17.50;54.00;19.60;94110.00;;;;10356906;28;45471;-60
2022/05/21 22:56:39;;;;;;;1.25;0.60;;;17.50;54.00;19.60;94110.00;;;;10355589;28;45175;-59
2022/05/21 23:02:00;;;;;;;0.75;0.57;;;17.50;54.00;19.50;94098.00;;;;10356013;28;45897;-59
2022/05/21 23:07:22;;;;;;;1.30;0.70;;;17.50;54.00;19.50;94092.00;;;;10355992;28;45955;-60
2022/05/21 23:12:42;;;;;;;0.60;0.55;;;17.50;54.00;19.60;94091.00;;;;10355257;28;45119;-60
2022/05/21 23:18:18;;;;;;;1.10;0.60;;;17.50;53.90;19.50;94083.00;;;;10355800;28;45217;-59
2022/05/21 23:23:40;;;;;;;0.95;0.70;;;17.50;54.60;19.50;94075.00;;;;10354843;28;45108;-60
2022/05/21 23:29:01;;;;;;;0.75;0.60;;;17.50;53.90;19.50;94074.00;;;;10354926;28;45266;-60
2022/05/21 23:34:22;;;;;;;1.10;0.70;;;17.50;53.90;19.50;94078.00;;;;10354494;28;45238;-61
2022/05/21 23:39:44;;;;;;;0.60;0.60;;;17.50;53.90;19.50;94073.00;;;;10355068;28;45311;-60
2022/05/21 23:45:07;;;;;;;1.05;0.57;;;17.50;53.90;19.50;94067.00;;;;10354907;28;45278;-60
2022/05/21 23:50:28;;;;;;;0.60;0.55;;;17.50;53.80;19.50;94069.00;;;;10355209;28;45690;-60
2022/05/21 23:55:50;;;;;;;0.65;0.60;;;17.50;53.80;19.50;94042.00;;;;10354611;28;45203;-61
